Estación Meteorológica Peña el Pijo (Robertgarden) [ 02/03/23 04:40:09 CET ]

Fecha Hora Presion(HPa) Temp (°C) Humedad % Rocio (°C) Viento ( m/s) Direccion Lluvia 1Hora(mm) Lluvia 24H(mm) LLuvia Total(mm)
2010-May-21 01:01:13 1017.000 8.5 73 3.9         113.96
2010-May-21 02:01:14 1016.900 7.1 78 3.5         113.96
2010-May-21 03:03:20 1016.300 6.1 81 3.1         113.96
2010-May-21 04:01:19 1016.200 5.3 82 2.4         113.96
2010-May-21 05:01:14 1015.900 4.9 83 2.2         113.96
2010-May-21 06:01:13 1015.800 4.5 85 2.2         113.96
2010-May-21 07:01:11 1015.800 4.4 85 2.1         113.96
2010-May-21 08:01:13 1015.700 6.4 85 4.0         113.96
2010-May-21 09:01:16 1015.600 12.5 67 6.5         113.96
2010-May-21 10:01:11 1015.700 19.6 44 7.0         113.96
2010-May-21 11:01:17 1015.600 21.8 33 4.8         113.96
2010-May-21 12:01:14 1015.200 24.9 29 5.6         113.96
2010-May-21 13:01:14 1015.000 25.6 23 2.7         113.96
2010-May-21 14:01:16 1014.700 26.8 23 3.8         113.96
2010-May-21 15:01:16 1014.200 26.4 24 4.0         113.96
2010-May-21 16:01:18 1013.700 25.6 24 3.3 1.0 ESE     113.96
2010-May-21 17:01:13 1013.300 26.8 21 2.6         113.96
2010-May-21 18:01:13 1013.100 25.6 23 2.7         113.96
2010-May-21 19:01:12 1012.900 24.1 27 3.8         113.96
2010-May-21 20:01:11 1012.800 21.9 30 3.6         113.96
2010-May-21 21:01:14 1013.200 18.6 34 2.3         113.96
2010-May-21 22:01:16 1013.700 15.8 40 2.2         113.96
2010-May-21 23:01:10 1013.800 14.3 44 2.1         113.96

Temperatura Máxima:26°    Temperatura Mínima:
Presión Máxima:1017.000 Hpa    Presión Mínima:1012.800 Hpa


Volver